Airfield :
LOGIN :

Register | Disclaimer

   EN    FR    IT 

 










Legend :    VFR   Marginal VFR   IFR   Intensive IFR   Very Intensive IFR
Visi :
Ceiling :
>= 8 km
>= 3000ft
5 to 8 km
1000 to 3000 ft
1500m to 5 km
500 to 1000 ft
800 to 1500m
200 to 500 ft
< 800m
< 200 ft
Symbols :   Thunderstorms  Fog  Heavy snow  Heavy precipitations  Wind > 20 kt
SIGMETs :     Misc.  Thunderstorms  Icing  Turbulence  Mountain Waves  Volcanic Ashes






- Airport Elevation : 219 ft
- IATA code : DNR


LFRD - Dinard

CURRENT METAR :
  • 130400Z AUTO 09004KT CAVOK 04/03 Q1031 TEMPO 0500 FG

EXPIRED METARs :
  • 130330Z AUTO 08004KT CAVOK 04/03 Q1031 TEMPO 0500 FG
  • 130300Z AUTO 09003KT CAVOK 04/03 Q1031 TEMPO 0500 FG
  • 130230Z AUTO 08001KT CAVOK 03/02 Q1032 TEMPO 0500 FG
  • 130200Z AUTO 24001KT 9999 FEW020 03/02 Q1032 TEMPO 0500 FG
  • 130130Z AUTO 00000KT 9999 SCT018 BKN037 BKN045 05/03 Q1032 TEMPO 0500 FG

TAF TAF LFRD
Valid from the 13 at 00:00 until the 14 at 00:00 UTC


122300Z 1300/1324 VRB05KT 9999 FEW040
TEMPO 1300/1307 3000 BR
PROB30
TEMPO 1302/1306 0500 FG
BECMG 1312/1314 06010KT
ATIS : +33 2 99 16 81 50



MET'MAP, your aeronautical weather chart ! - Copyright ORBIFLY December 2007 - Disclaimer

ORBIFLY MET'MAP TEAM :

Programming & Development : Alexandra Zaïnal
Concept & original design : Baudouin d'Aumeries
Assistance for programming : Marc-Olivier Méhu
Technical & hardware support : Manuel Goepfert

Contact : metmap@orbifly.com




SOURCES & CREDITS :

   NOAA